sensor_id;sensor_type;location;lat;lon;timestamp;temperature;humidity
37974;DHT22;23796;51.458;7.000;2023-04-24T00:01:02;11.60;79.40
37974;DHT22;23796;51.458;7.000;2023-04-24T00:03:27;11.70;78.80
37974;DHT22;23796;51.458;7.000;2023-04-24T00:05:55;11.70;78.70
37974;DHT22;23796;51.458;7.000;2023-04-24T00:08:21;11.80;78.50
37974;DHT22;23796;51.458;7.000;2023-04-24T00:10:48;11.80;78.10
37974;DHT22;23796;51.458;7.000;2023-04-24T00:13:13;11.80;78.30
37974;DHT22;23796;51.458;7.000;2023-04-24T00:15:39;11.80;78.40
37974;DHT22;23796;51.458;7.000;2023-04-24T00:18:07;11.70;78.30
37974;DHT22;23796;51.458;7.000;2023-04-24T00:20:34;11.70;78.50
37974;DHT22;23796;51.458;7.000;2023-04-24T00:23:05;11.70;78.40
37974;DHT22;23796;51.458;7.000;2023-04-24T00:25:30;11.60;78.60
37974;DHT22;23796;51.458;7.000;2023-04-24T00:27:56;11.60;79.10
37974;DHT22;23796;51.458;7.000;2023-04-24T00:30:22;11.60;78.90
37974;DHT22;23796;51.458;7.000;2023-04-24T00:32:49;11.60;78.50
37974;DHT22;23796;51.458;7.000;2023-04-24T00:35:15;11.60;78.10
37974;DHT22;23796;51.458;7.000;2023-04-24T00:37:43;11.50;78.00
37974;DHT22;23796;51.458;7.000;2023-04-24T00:40:09;11.40;78.60
37974;DHT22;23796;51.458;7.000;2023-04-24T00:42:37;11.40;78.90
37974;DHT22;23796;51.458;7.000;2023-04-24T00:45:07;11.30;79.00
37974;DHT22;23796;51.458;7.000;2023-04-24T00:47:36;11.30;79.30
37974;DHT22;23796;51.458;7.000;2023-04-24T00:50:03;11.10;79.40
37974;DHT22;23796;51.458;7.000;2023-04-24T00:52:29;11.00;79.90
37974;DHT22;23796;51.458;7.000;2023-04-24T00:54:56;10.90;80.40
37974;DHT22;23796;51.458;7.000;2023-04-24T00:57:22;10.80;80.80
37974;DHT22;23796;51.458;7.000;2023-04-24T00:59:49;10.70;81.30
37974;DHT22;23796;51.458;7.000;2023-04-24T01:02:15;10.60;81.20
37974;DHT22;23796;51.458;7.000;2023-04-24T01:04:46;10.50;81.60
37974;DHT22;23796;51.458;7.000;2023-04-24T01:07:12;10.50;81.90
37974;DHT22;23796;51.458;7.000;2023-04-24T01:09:40;10.50;82.00
37974;DHT22;23796;51.458;7.000;2023-04-24T01:12:09;10.60;81.60
37974;DHT22;23796;51.458;7.000;2023-04-24T01:14:35;10.70;81.20
37974;DHT22;23796;51.458;7.000;2023-04-24T01:17:01;10.70;81.10
37974;DHT22;23796;51.458;7.000;2023-04-24T01:19:27;10.50;81.70
37974;DHT22;23796;51.458;7.000;2023-04-24T01:21:58;10.50;82.00
37974;DHT22;23796;51.458;7.000;2023-04-24T01:24:24;10.40;82.20
37974;DHT22;23796;51.458;7.000;2023-04-24T01:26:50;10.30;82.50
37974;DHT22;23796;51.458;7.000;2023-04-24T01:29:15;10.20;83.20
37974;DHT22;23796;51.458;7.000;2023-04-24T01:31:46;10.20;83.40
37974;DHT22;23796;51.458;7.000;2023-04-24T01:34:12;10.10;83.70
37974;DHT22;23796;51.458;7.000;2023-04-24T01:36:38;10.10;84.00
37974;DHT22;23796;51.458;7.000;2023-04-24T01:39:04;10.20;83.80
37974;DHT22;23796;51.458;7.000;2023-04-24T01:41:32;10.20;83.70
37974;DHT22;23796;51.458;7.000;2023-04-24T01:44:03;10.30;83.40
37974;DHT22;23796;51.458;7.000;2023-04-24T01:46:31;10.30;83.40
37974;DHT22;23796;51.458;7.000;2023-04-24T01:49:00;10.20;83.30
37974;DHT22;23796;51.458;7.000;2023-04-24T01:51:26;10.10;83.70
37974;DHT22;23796;51.458;7.000;2023-04-24T01:53:54;10.00;84.00
37974;DHT22;23796;51.458;7.000;2023-04-24T01:56:21;9.90;84.50
37974;DHT22;23796;51.458;7.000;2023-04-24T01:58:50;9.80;84.80
37974;DHT22;23796;51.458;7.000;2023-04-24T02:01:20;9.80;85.10
37974;DHT22;23796;51.458;7.000;2023-04-24T02:03:46;9.80;84.70
37974;DHT22;23796;51.458;7.000;2023-04-24T02:06:12;9.80;84.60
37974;DHT22;23796;51.458;7.000;2023-04-24T02:08:42;9.90;84.10
37974;DHT22;23796;51.458;7.000;2023-04-24T02:11:13;9.90;83.70
37974;DHT22;23796;51.458;7.000;2023-04-24T02:13:40;10.00;83.30
37974;DHT22;23796;51.458;7.000;2023-04-24T02:16:11;10.10;83.00
37974;DHT22;23796;51.458;7.000;2023-04-24T02:18:39;10.10;82.60
37974;DHT22;23796;51.458;7.000;2023-04-24T02:21:04;10.10;82.60
37974;DHT22;23796;51.458;7.000;2023-04-24T02:23:32;10.10;82.30
37974;DHT22;23796;51.458;7.000;2023-04-24T02:25:58;10.10;82.30
37974;DHT22;23796;51.458;7.000;2023-04-24T02:28:24;10.10;82.40
37974;DHT22;23796;51.458;7.000;2023-04-24T02:30:50;10.10;82.60
37974;DHT22;23796;51.458;7.000;2023-04-24T02:33:18;10.10;82.70
37974;DHT22;23796;51.458;7.000;2023-04-24T02:35:44;10.00;82.80
37974;DHT22;23796;51.458;7.000;2023-04-24T02:38:09;10.00;83.10
37974;DHT22;23796;51.458;7.000;2023-04-24T02:40:35;10.00;83.50
37974;DHT22;23796;51.458;7.000;2023-04-24T02:43:00;9.90;83.40
37974;DHT22;23796;51.458;7.000;2023-04-24T02:45:28;10.00;83.30
37974;DHT22;23796;51.458;7.000;2023-04-24T02:47:54;9.90;83.30
37974;DHT22;23796;51.458;7.000;2023-04-24T02:50:22;9.90;83.50
37974;DHT22;23796;51.458;7.000;2023-04-24T02:52:50;9.90;83.60
37974;DHT22;23796;51.458;7.000;2023-04-24T02:55:15;10.00;83.60
37974;DHT22;23796;51.458;7.000;2023-04-24T02:57:41;10.00;83.40
37974;DHT22;23796;51.458;7.000;2023-04-24T03:00:07;10.10;83.20
37974;DHT22;23796;51.458;7.000;2023-04-24T03:02:34;10.10;83.20
37974;DHT22;23796;51.458;7.000;2023-04-24T03:05:02;10.10;83.10
37974;DHT22;23796;51.458;7.000;2023-04-24T03:07:30;10.20;82.90
37974;DHT22;23796;51.458;7.000;2023-04-24T03:09:58;10.20;82.80
37974;DHT22;23796;51.458;7.000;2023-04-24T03:12:26;10.20;82.50
37974;DHT22;23796;51.458;7.000;2023-04-24T03:14:52;10.20;82.90
37974;DHT22;23796;51.458;7.000;2023-04-24T03:17:18;10.20;82.80
37974;DHT22;23796;51.458;7.000;2023-04-24T03:19:43;10.20;82.80
37974;DHT22;23796;51.458;7.000;2023-04-24T03:22:09;10.20;82.70
37974;DHT22;23796;51.458;7.000;2023-04-24T03:24:36;10.20;82.80
37974;DHT22;23796;51.458;7.000;2023-04-24T03:27:04;10.30;82.90
37974;DHT22;23796;51.458;7.000;2023-04-24T03:29:30;10.30;82.90
37974;DHT22;23796;51.458;7.000;2023-04-24T03:31:58;10.30;82.90
37974;DHT22;23796;51.458;7.000;2023-04-24T03:34:26;10.30;82.60
37974;DHT22;23796;51.458;7.000;2023-04-24T03:36:54;10.30;82.70
37974;DHT22;23796;51.458;7.000;2023-04-24T03:39:19;10.30;82.90
37974;DHT22;23796;51.458;7.000;2023-04-24T03:41:45;10.30;82.90
37974;DHT22;23796;51.458;7.000;2023-04-24T03:44:10;10.30;82.80
37974;DHT22;23796;51.458;7.000;2023-04-24T03:46:36;10.30;82.80
37974;DHT22;23796;51.458;7.000;2023-04-24T03:49:04;10.30;82.90
37974;DHT22;23796;51.458;7.000;2023-04-24T03:51:29;10.30;82.70
37974;DHT22;23796;51.458;7.000;2023-04-24T03:53:56;10.30;82.70
37974;DHT22;23796;51.458;7.000;2023-04-24T03:56:22;10.40;82.70
37974;DHT22;23796;51.458;7.000;2023-04-24T03:58:48;10.40;82.70
37974;DHT22;23796;51.458;7.000;2023-04-24T04:01:15;10.40;82.50
37974;DHT22;23796;51.458;7.000;2023-04-24T04:03:41;10.50;82.10
37974;DHT22;23796;51.458;7.000;2023-04-24T04:06:10;10.50;82.20
37974;DHT22;23796;51.458;7.000;2023-04-24T04:08:38;10.50;82.10
37974;DHT22;23796;51.458;7.000;2023-04-24T04:11:06;10.40;82.10
37974;DHT22;23796;51.458;7.000;2023-04-24T04:13:32;10.40;82.20
37974;DHT22;23796;51.458;7.000;2023-04-24T04:15:57;10.40;82.10
37974;DHT22;23796;51.458;7.000;2023-04-24T04:18:25;10.40;82.00
37974;DHT22;23796;51.458;7.000;2023-04-24T04:20:53;10.30;81.80
37974;DHT22;23796;51.458;7.000;2023-04-24T04:23:22;10.30;82.10
37974;DHT22;23796;51.458;7.000;2023-04-24T04:25:48;10.30;82.10
37974;DHT22;23796;51.458;7.000;2023-04-24T04:28:19;10.30;81.90
37974;DHT22;23796;51.458;7.000;2023-04-24T04:30:47;10.30;81.90
37974;DHT22;23796;51.458;7.000;2023-04-24T04:33:13;10.30;82.00
37974;DHT22;23796;51.458;7.000;2023-04-24T04:35:40;10.40;81.90
37974;DHT22;23796;51.458;7.000;2023-04-24T04:38:06;10.40;81.70
37974;DHT22;23796;51.458;7.000;2023-04-24T04:40:36;10.40;81.70
37974;DHT22;23796;51.458;7.000;2023-04-24T04:43:01;10.40;81.50
37974;DHT22;23796;51.458;7.000;2023-04-24T04:45:30;10.30;81.60
37974;DHT22;23796;51.458;7.000;2023-04-24T04:47:55;10.30;81.70
37974;DHT22;23796;51.458;7.000;2023-04-24T04:50:24;10.40;81.60
37974;DHT22;23796;51.458;7.000;2023-04-24T04:52:52;10.40;81.60
37974;DHT22;23796;51.458;7.000;2023-04-24T04:55:18;10.40;81.10
37974;DHT22;23796;51.458;7.000;2023-04-24T04:57:45;10.40;81.00
37974;DHT22;23796;51.458;7.000;2023-04-24T05:00:11;10.40;81.10
37974;DHT22;23796;51.458;7.000;2023-04-24T05:02:38;10.40;81.00
37974;DHT22;23796;51.458;7.000;2023-04-24T05:05:04;10.30;81.20
37974;DHT22;23796;51.458;7.000;2023-04-24T05:07:31;10.30;81.10
37974;DHT22;23796;51.458;7.000;2023-04-24T05:09:58;10.30;81.10
37974;DHT22;23796;51.458;7.000;2023-04-24T05:12:24;10.40;80.70
37974;DHT22;23796;51.458;7.000;2023-04-24T05:14:50;10.40;80.60
37974;DHT22;23796;51.458;7.000;2023-04-24T05:17:16;10.40;80.80
37974;DHT22;23796;51.458;7.000;2023-04-24T05:19:44;10.40;80.60
37974;DHT22;23796;51.458;7.000;2023-04-24T05:22:10;10.40;80.70
37974;DHT22;23796;51.458;7.000;2023-04-24T05:24:37;10.40;80.80
37974;DHT22;23796;51.458;7.000;2023-04-24T05:27:05;10.30;81.50
37974;DHT22;23796;51.458;7.000;2023-04-24T05:29:31;10.30;81.80
37974;DHT22;23796;51.458;7.000;2023-04-24T05:31:58;10.30;82.50
37974;DHT22;23796;51.458;7.000;2023-04-24T05:34:24;10.20;84.00
37974;DHT22;23796;51.458;7.000;2023-04-24T05:36:52;10.20;85.50
37974;DHT22;23796;51.458;7.000;2023-04-24T05:39:20;10.00;86.30
37974;DHT22;23796;51.458;7.000;2023-04-24T05:41:45;10.10;86.90
37974;DHT22;23796;51.458;7.000;2023-04-24T05:44:11;10.00;87.00
37974;DHT22;23796;51.458;7.000;2023-04-24T05:46:37;10.00;87.20
37974;DHT22;23796;51.458;7.000;2023-04-24T05:49:02;9.90;87.70
37974;DHT22;23796;51.458;7.000;2023-04-24T05:51:28;10.00;87.80
37974;DHT22;23796;51.458;7.000;2023-04-24T05:53:54;10.00;87.70
37974;DHT22;23796;51.458;7.000;2023-04-24T05:56:20;10.00;87.60
37974;DHT22;23796;51.458;7.000;2023-04-24T05:58:46;10.00;87.50
37974;DHT22;23796;51.458;7.000;2023-04-24T06:01:12;10.00;87.50
37974;DHT22;23796;51.458;7.000;2023-04-24T06:03:40;10.00;87.50
37974;DHT22;23796;51.458;7.000;2023-04-24T06:06:08;10.00;87.00
37974;DHT22;23796;51.458;7.000;2023-04-24T06:08:34;10.00;87.20
37974;DHT22;23796;51.458;7.000;2023-04-24T06:11:00;10.00;86.80
37974;DHT22;23796;51.458;7.000;2023-04-24T06:13:26;10.00;87.10
37974;DHT22;23796;51.458;7.000;2023-04-24T06:15:54;10.10;86.60
37974;DHT22;23796;51.458;7.000;2023-04-24T06:18:20;10.10;86.00
37974;DHT22;23796;51.458;7.000;2023-04-24T06:20:49;10.10;86.20
37974;DHT22;23796;51.458;7.000;2023-04-24T06:23:15;10.10;85.80
37974;DHT22;23796;51.458;7.000;2023-04-24T06:25:41;10.10;86.00
37974;DHT22;23796;51.458;7.000;2023-04-24T06:28:06;10.10;86.40
37974;DHT22;23796;51.458;7.000;2023-04-24T06:30:32;10.20;86.90
37974;DHT22;23796;51.458;7.000;2023-04-24T06:32:58;10.20;86.40
37974;DHT22;23796;51.458;7.000;2023-04-24T06:35:23;10.10;87.60
37974;DHT22;23796;51.458;7.000;2023-04-24T06:37:49;10.10;87.90
37974;DHT22;23796;51.458;7.000;2023-04-24T06:40:15;10.20;87.40
37974;DHT22;23796;51.458;7.000;2023-04-24T06:42:40;10.30;87.40
37974;DHT22;23796;51.458;7.000;2023-04-24T06:45:06;10.30;86.40
37974;DHT22;23796;51.458;7.000;2023-04-24T06:47:32;10.20;87.40
37974;DHT22;23796;51.458;7.000;2023-04-24T06:49:59;10.10;87.80
37974;DHT22;23796;51.458;7.000;2023-04-24T06:52:28;10.00;88.20
37974;DHT22;23796;51.458;7.000;2023-04-24T06:55:00;10.10;88.20
37974;DHT22;23796;51.458;7.000;2023-04-24T06:57:26;10.30;87.30
37974;DHT22;23796;51.458;7.000;2023-04-24T06:59:52;10.40;87.20
37974;DHT22;23796;51.458;7.000;2023-04-24T07:02:17;10.50;87.70
37974;DHT22;23796;51.458;7.000;2023-04-24T07:04:43;10.20;87.70
37974;DHT22;23796;51.458;7.000;2023-04-24T07:07:08;10.00;87.90
37974;DHT22;23796;51.458;7.000;2023-04-24T07:09:38;10.00;87.80
37974;DHT22;23796;51.458;7.000;2023-04-24T07:12:06;10.10;88.20
37974;DHT22;23796;51.458;7.000;2023-04-24T07:14:32;10.10;87.60
37974;DHT22;23796;51.458;7.000;2023-04-24T07:17:03;10.30;87.90
37974;DHT22;23796;51.458;7.000;2023-04-24T07:19:28;10.40;87.00
37974;DHT22;23796;51.458;7.000;2023-04-24T07:21:54;10.50;86.70
37974;DHT22;23796;51.458;7.000;2023-04-24T07:24:22;10.50;86.80
37974;DHT22;23796;51.458;7.000;2023-04-24T07:26:48;10.50;86.80
37974;DHT22;23796;51.458;7.000;2023-04-24T07:29:14;10.30;86.50
37974;DHT22;23796;51.458;7.000;2023-04-24T07:31:42;10.20;86.30
37974;DHT22;23796;51.458;7.000;2023-04-24T07:34:07;10.20;87.00
37974;DHT22;23796;51.458;7.000;2023-04-24T07:36:35;10.10;87.70
37974;DHT22;23796;51.458;7.000;2023-04-24T07:39:04;10.00;87.40
37974;DHT22;23796;51.458;7.000;2023-04-24T07:41:29;10.00;88.00
37974;DHT22;23796;51.458;7.000;2023-04-24T07:43:55;9.90;88.10
37974;DHT22;23796;51.458;7.000;2023-04-24T07:46:24;10.00;88.10
37974;DHT22;23796;51.458;7.000;2023-04-24T07:48:55;10.00;87.50
37974;DHT22;23796;51.458;7.000;2023-04-24T07:51:27;10.10;87.20
37974;DHT22;23796;51.458;7.000;2023-04-24T07:53:56;10.30;86.00
37974;DHT22;23796;51.458;7.000;2023-04-24T07:56:24;10.70;85.40
37974;DHT22;23796;51.458;7.000;2023-04-24T07:58:52;10.50;84.20
37974;DHT22;23796;51.458;7.000;2023-04-24T08:01:18;10.50;85.10
37974;DHT22;23796;51.458;7.000;2023-04-24T08:03:43;10.30;83.90
37974;DHT22;23796;51.458;7.000;2023-04-24T08:06:09;10.30;83.40
37974;DHT22;23796;51.458;7.000;2023-04-24T08:08:35;10.30;83.20
37974;DHT22;23796;51.458;7.000;2023-04-24T08:11:00;10.30;84.20
37974;DHT22;23796;51.458;7.000;2023-04-24T08:13:26;10.40;84.60
37974;DHT22;23796;51.458;7.000;2023-04-24T08:15:52;10.30;84.30
37974;DHT22;23796;51.458;7.000;2023-04-24T08:18:17;10.10;84.20
37974;DHT22;23796;51.458;7.000;2023-04-24T08:20:43;10.00;85.30
37974;DHT22;23796;51.458;7.000;2023-04-24T08:23:11;10.10;85.50
37974;DHT22;23796;51.458;7.000;2023-04-24T08:25:39;10.10;85.60
37974;DHT22;23796;51.458;7.000;2023-04-24T08:28:06;10.10;85.60
37974;DHT22;23796;51.458;7.000;2023-04-24T08:30:33;10.10;86.00
37974;DHT22;23796;51.458;7.000;2023-04-24T08:32:59;10.20;86.00
37974;DHT22;23796;51.458;7.000;2023-04-24T08:35:25;10.20;85.90
37974;DHT22;23796;51.458;7.000;2023-04-24T08:37:52;10.10;86.50
37974;DHT22;23796;51.458;7.000;2023-04-24T08:40:27;10.00;87.30
37974;DHT22;23796;51.458;7.000;2023-04-24T08:42:55;9.90;87.60
37974;DHT22;23796;51.458;7.000;2023-04-24T08:45:23;9.90;87.80
37974;DHT22;23796;51.458;7.000;2023-04-24T08:47:50;9.90;88.10
37974;DHT22;23796;51.458;7.000;2023-04-24T08:50:20;9.90;88.90
37974;DHT22;23796;51.458;7.000;2023-04-24T08:52:46;9.70;89.40
37974;DHT22;23796;51.458;7.000;2023-04-24T08:55:12;9.80;90.20
37974;DHT22;23796;51.458;7.000;2023-04-24T08:57:40;9.60;90.10
37974;DHT22;23796;51.458;7.000;2023-04-24T09:00:07;9.50;91.20
37974;DHT22;23796;51.458;7.000;2023-04-24T09:02:33;9.60;91.90
37974;DHT22;23796;51.458;7.000;2023-04-24T09:05:00;9.80;91.30
37974;DHT22;23796;51.458;7.000;2023-04-24T09:07:27;9.70;92.20
37974;DHT22;23796;51.458;7.000;2023-04-24T09:09:58;9.90;92.30
37974;DHT22;23796;51.458;7.000;2023-04-24T09:12:24;9.90;91.40
37974;DHT22;23796;51.458;7.000;2023-04-24T09:14:50;9.80;91.50
37974;DHT22;23796;51.458;7.000;2023-04-24T09:17:16;9.60;92.10
37974;DHT22;23796;51.458;7.000;2023-04-24T09:19:44;9.50;93.80
37974;DHT22;23796;51.458;7.000;2023-04-24T09:22:10;9.40;94.00
37974;DHT22;23796;51.458;7.000;2023-04-24T09:24:36;9.40;93.80
37974;DHT22;23796;51.458;7.000;2023-04-24T09:27:02;9.40;95.00
37974;DHT22;23796;51.458;7.000;2023-04-24T09:29:28;9.40;94.50
37974;DHT22;23796;51.458;7.000;2023-04-24T09:31:58;9.40;92.30
37974;DHT22;23796;51.458;7.000;2023-04-24T09:34:28;9.10;93.80
37974;DHT22;23796;51.458;7.000;2023-04-24T09:36:54;8.90;94.90
37974;DHT22;23796;51.458;7.000;2023-04-24T09:39:20;8.80;95.10
37974;DHT22;23796;51.458;7.000;2023-04-24T09:41:54;8.70;94.80
37974;DHT22;23796;51.458;7.000;2023-04-24T09:44:23;8.60;95.00
37974;DHT22;23796;51.458;7.000;2023-04-24T09:46:57;8.60;96.00
37974;DHT22;23796;51.458;7.000;2023-04-24T09:49:27;8.60;95.00
37974;DHT22;23796;51.458;7.000;2023-04-24T09:52:09;8.60;94.70
37974;DHT22;23796;51.458;7.000;2023-04-24T09:54:37;8.50;91.90
37974;DHT22;23796;51.458;7.000;2023-04-24T09:57:03;8.40;92.80
37974;DHT22;23796;51.458;7.000;2023-04-24T09:59:29;8.40;93.10
37974;DHT22;23796;51.458;7.000;2023-04-24T10:01:55;8.30;93.70
37974;DHT22;23796;51.458;7.000;2023-04-24T10:04:27;8.30;93.10
37974;DHT22;23796;51.458;7.000;2023-04-24T10:06:55;8.30;95.00
37974;DHT22;23796;51.458;7.000;2023-04-24T10:09:25;8.40;94.50
37974;DHT22;23796;51.458;7.000;2023-04-24T10:11:53;8.50;94.00
37974;DHT22;23796;51.458;7.000;2023-04-24T10:14:21;8.40;94.00
37974;DHT22;23796;51.458;7.000;2023-04-24T10:16:52;8.40;94.80
37974;DHT22;23796;51.458;7.000;2023-04-24T10:19:20;8.50;96.00
37974;DHT22;23796;51.458;7.000;2023-04-24T10:21:49;8.50;94.90
37974;DHT22;23796;51.458;7.000;2023-04-24T10:24:17;8.50;95.70
37974;DHT22;23796;51.458;7.000;2023-04-24T10:26:45;8.50;96.40
37974;DHT22;23796;51.458;7.000;2023-04-24T10:29:16;8.50;96.20
37974;DHT22;23796;51.458;7.000;2023-04-24T10:31:43;8.60;95.20
37974;DHT22;23796;51.458;7.000;2023-04-24T10:34:11;8.60;95.00
37974;DHT22;23796;51.458;7.000;2023-04-24T10:36:40;8.60;93.60
37974;DHT22;23796;51.458;7.000;2023-04-24T10:39:11;8.60;94.30
37974;DHT22;23796;51.458;7.000;2023-04-24T10:41:38;8.80;93.70
37974;DHT22;23796;51.458;7.000;2023-04-24T10:44:08;8.80;93.90
37974;DHT22;23796;51.458;7.000;2023-04-24T10:46:35;8.70;93.20
37974;DHT22;23796;51.458;7.000;2023-04-24T10:49:04;8.60;93.90
37974;DHT22;23796;51.458;7.000;2023-04-24T11:00:19;8.80;94.60
37974;DHT22;23796;51.458;7.000;2023-04-24T11:02:47;8.90;94.10
37974;DHT22;23796;51.458;7.000;2023-04-24T11:05:21;9.00;93.50
37974;DHT22;23796;51.458;7.000;2023-04-24T11:08:12;9.20;94.40
37974;DHT22;23796;51.458;7.000;2023-04-24T11:10:44;9.10;93.60
37974;DHT22;23796;51.458;7.000;2023-04-24T11:13:10;9.30;92.70
37974;DHT22;23796;51.458;7.000;2023-04-24T11:15:38;9.30;92.80
37974;DHT22;23796;51.458;7.000;2023-04-24T11:18:11;9.50;90.90
37974;DHT22;23796;51.458;7.000;2023-04-24T11:20:42;9.60;89.50
37974;DHT22;23796;51.458;7.000;2023-04-24T11:23:14;9.60;87.90
37974;DHT22;23796;51.458;7.000;2023-04-24T11:25:41;9.70;88.60
37974;DHT22;23796;51.458;7.000;2023-04-24T11:28:07;9.80;88.10
37974;DHT22;23796;51.458;7.000;2023-04-24T11:30:39;9.80;88.70
37974;DHT22;23796;51.458;7.000;2023-04-24T11:33:05;9.70;90.10
37974;DHT22;23796;51.458;7.000;2023-04-24T11:35:36;9.80;91.40
37974;DHT22;23796;51.458;7.000;2023-04-24T11:38:04;9.80;89.80
37974;DHT22;23796;51.458;7.000;2023-04-24T11:40:31;9.70;90.50
37974;DHT22;23796;51.458;7.000;2023-04-24T11:42:56;9.60;90.20
37974;DHT22;23796;51.458;7.000;2023-04-24T11:45:28;9.70;88.00
37974;DHT22;23796;51.458;7.000;2023-04-24T11:47:55;9.70;86.40
37974;DHT22;23796;51.458;7.000;2023-04-24T11:50:25;9.60;85.70
37974;DHT22;23796;51.458;7.000;2023-04-24T11:52:51;9.40;83.80
37974;DHT22;23796;51.458;7.000;2023-04-24T11:57:47;9.30;83.60
37974;DHT22;23796;51.458;7.000;2023-04-24T12:02:44;9.90;83.80
37974;DHT22;23796;51.458;7.000;2023-04-24T12:05:23;10.10;82.50
37974;DHT22;23796;51.458;7.000;2023-04-24T12:07:49;10.30;81.80
37974;DHT22;23796;51.458;7.000;2023-04-24T12:10:25;10.50;81.40
37974;DHT22;23796;51.458;7.000;2023-04-24T12:12:55;10.60;81.10
37974;DHT22;23796;51.458;7.000;2023-04-24T12:15:22;10.50;81.60
37974;DHT22;23796;51.458;7.000;2023-04-24T12:17:51;10.50;80.60
37974;DHT22;23796;51.458;7.000;2023-04-24T12:20:20;10.70;80.20
37974;DHT22;23796;51.458;7.000;2023-04-24T12:22:53;10.70;80.70
37974;DHT22;23796;51.458;7.000;2023-04-24T12:25:21;10.40;81.20
37974;DHT22;23796;51.458;7.000;2023-04-24T12:27:55;10.20;80.10
37974;DHT22;23796;51.458;7.000;2023-04-24T12:30:40;10.20;80.30
37974;DHT22;23796;51.458;7.000;2023-04-24T12:33:09;10.10;80.90
37974;DHT22;23796;51.458;7.000;2023-04-24T12:35:34;10.10;80.20
37974;DHT22;23796;51.458;7.000;2023-04-24T12:38:11;10.10;81.10
37974;DHT22;23796;51.458;7.000;2023-04-24T12:40:41;10.20;81.00
37974;DHT22;23796;51.458;7.000;2023-04-24T12:43:18;10.20;79.30
37974;DHT22;23796;51.458;7.000;2023-04-24T12:45:48;10.10;78.70
37974;DHT22;23796;51.458;7.000;2023-04-24T12:48:14;10.20;77.20
37974;DHT22;23796;51.458;7.000;2023-04-24T12:50:40;10.20;76.80
37974;DHT22;23796;51.458;7.000;2023-04-24T12:53:07;10.20;76.30
37974;DHT22;23796;51.458;7.000;2023-04-24T12:55:39;10.30;76.00
37974;DHT22;23796;51.458;7.000;2023-04-24T12:58:07;10.20;75.40
37974;DHT22;23796;51.458;7.000;2023-04-24T13:00:33;10.40;76.20
37974;DHT22;23796;51.458;7.000;2023-04-24T13:03:01;10.50;75.70
37974;DHT22;23796;51.458;7.000;2023-04-24T13:05:29;10.90;74.40
37974;DHT22;23796;51.458;7.000;2023-04-24T13:08:00;10.80;73.70
37974;DHT22;23796;51.458;7.000;2023-04-24T13:10:25;10.90;73.30
37974;DHT22;23796;51.458;7.000;2023-04-24T13:12:51;10.90;72.70
37974;DHT22;23796;51.458;7.000;2023-04-24T13:15:17;10.80;73.40
37974;DHT22;23796;51.458;7.000;2023-04-24T13:17:42;10.80;74.90
37974;DHT22;23796;51.458;7.000;2023-04-24T13:20:10;11.10;73.90
37974;DHT22;23796;51.458;7.000;2023-04-24T13:22:36;11.00;73.10
37974;DHT22;23796;51.458;7.000;2023-04-24T13:25:05;11.10;73.40
37974;DHT22;23796;51.458;7.000;2023-04-24T13:27:34;11.10;71.50
37974;DHT22;23796;51.458;7.000;2023-04-24T13:29:59;11.00;72.40
37974;DHT22;23796;51.458;7.000;2023-04-24T13:32:25;10.90;73.10
37974;DHT22;23796;51.458;7.000;2023-04-24T13:34:50;10.90;72.30
37974;DHT22;23796;51.458;7.000;2023-04-24T13:37:18;10.70;73.40
37974;DHT22;23796;51.458;7.000;2023-04-24T13:39:44;10.80;73.60
37974;DHT22;23796;51.458;7.000;2023-04-24T13:42:09;10.90;73.30
37974;DHT22;23796;51.458;7.000;2023-04-24T13:44:36;11.00;73.10
37974;DHT22;23796;51.458;7.000;2023-04-24T13:47:01;11.00;73.00
37974;DHT22;23796;51.458;7.000;2023-04-24T13:49:28;10.80;73.80
37974;DHT22;23796;51.458;7.000;2023-04-24T13:51:56;10.70;73.60
37974;DHT22;23796;51.458;7.000;2023-04-24T13:54:24;10.60;74.60
37974;DHT22;23796;51.458;7.000;2023-04-24T13:56:52;10.90;72.70
37974;DHT22;23796;51.458;7.000;2023-04-24T13:59:21;10.80;72.60
37974;DHT22;23796;51.458;7.000;2023-04-24T14:01:47;11.00;73.20
37974;DHT22;23796;51.458;7.000;2023-04-24T14:04:13;11.10;72.80
37974;DHT22;23796;51.458;7.000;2023-04-24T14:06:38;11.30;72.10
37974;DHT22;23796;51.458;7.000;2023-04-24T14:09:04;11.30;71.70
37974;DHT22;23796;51.458;7.000;2023-04-24T14:11:29;11.20;72.00
37974;DHT22;23796;51.458;7.000;2023-04-24T14:13:55;11.30;72.10
37974;DHT22;23796;51.458;7.000;2023-04-24T14:16:26;11.40;72.30
37974;DHT22;23796;51.458;7.000;2023-04-24T14:18:51;11.30;72.10
37974;DHT22;23796;51.458;7.000;2023-04-24T14:21:17;11.30;71.90
37974;DHT22;23796;51.458;7.000;2023-04-24T14:23:42;11.50;71.50
37974;DHT22;23796;51.458;7.000;2023-04-24T14:26:09;11.80;69.60
37974;DHT22;23796;51.458;7.000;2023-04-24T14:28:35;12.00;69.80
37974;DHT22;23796;51.458;7.000;2023-04-24T14:31:06;12.00;69.40
37974;DHT22;23796;51.458;7.000;2023-04-24T14:33:34;11.80;69.50
37974;DHT22;23796;51.458;7.000;2023-04-24T14:36:00;11.50;69.60
37974;DHT22;23796;51.458;7.000;2023-04-24T14:38:27;11.10;71.50
37974;DHT22;23796;51.458;7.000;2023-04-24T14:40:53;11.00;71.50
37974;DHT22;23796;51.458;7.000;2023-04-24T14:43:22;10.70;72.30
37974;DHT22;23796;51.458;7.000;2023-04-24T14:45:48;10.80;73.00
37974;DHT22;23796;51.458;7.000;2023-04-24T14:48:14;10.70;73.60
37974;DHT22;23796;51.458;7.000;2023-04-24T14:50:41;10.50;73.40
37974;DHT22;23796;51.458;7.000;2023-04-24T14:53:09;10.20;75.20
37974;DHT22;23796;51.458;7.000;2023-04-24T14:55:35;10.20;77.10
37974;DHT22;23796;51.458;7.000;2023-04-24T14:58:02;9.80;79.20
37974;DHT22;23796;51.458;7.000;2023-04-24T15:00:28;9.70;79.90
37974;DHT22;23796;51.458;7.000;2023-04-24T15:02:55;9.70;82.20
37974;DHT22;23796;51.458;7.000;2023-04-24T15:05:21;9.80;82.30
37974;DHT22;23796;51.458;7.000;2023-04-24T15:07:47;9.90;83.20
37974;DHT22;23796;51.458;7.000;2023-04-24T15:10:15;9.70;82.50
37974;DHT22;23796;51.458;7.000;2023-04-24T15:12:43;9.80;82.90
37974;DHT22;23796;51.458;7.000;2023-04-24T15:15:09;10.00;82.80
37974;DHT22;23796;51.458;7.000;2023-04-24T15:17:35;10.10;82.10
37974;DHT22;23796;51.458;7.000;2023-04-24T15:20:01;10.10;81.40
37974;DHT22;23796;51.458;7.000;2023-04-24T15:22:28;10.20;82.50
37974;DHT22;23796;51.458;7.000;2023-04-24T15:24:53;10.50;80.90
37974;DHT22;23796;51.458;7.000;2023-04-24T15:27:19;10.60;80.00
37974;DHT22;23796;51.458;7.000;2023-04-24T15:29:45;10.70;79.80
37974;DHT22;23796;51.458;7.000;2023-04-24T15:32:10;10.70;79.20
37974;DHT22;23796;51.458;7.000;2023-04-24T15:34:37;10.50;79.30
37974;DHT22;23796;51.458;7.000;2023-04-24T15:37:02;10.40;79.10
37974;DHT22;23796;51.458;7.000;2023-04-24T15:39:28;10.50;78.40
37974;DHT22;23796;51.458;7.000;2023-04-24T15:41:54;10.60;78.50
37974;DHT22;23796;51.458;7.000;2023-04-24T15:44:20;10.80;76.40
37974;DHT22;23796;51.458;7.000;2023-04-24T15:46:46;11.00;76.30
37974;DHT22;23796;51.458;7.000;2023-04-24T15:49:12;10.90;74.90